Disclaimer

Please do not use the information listed here in-flight or in-navigation, as they are not provided to us by the airports but are provided by volunteers, so they might be outdated.

Search


Regions


Airport information page

No radio frequency information is available.

Airport informations:
Latitude: 26° 13' 09.99" N
Longitude: 068° 23' 24.19" E
Elevation: 95 feet - 29 meters
Operating hours: N/A
Operating agency: Civil government, landing fees and diplomatic clearance may be required
Timezone: UTC+5
Fuel: N/A

Runway information:
02/20 - 8999 x 150 feet< - >2743 x 46 meters

Recent METARs:
OPNH 182300Z 31502KT 2500M BR NSC 18/15 Q1010 TEMPO 2999 BR
OPNH 182300Z 31502KT 2500M BR NSC 18/15 Q1010 TEMPO 2999 BR
OPNH 182355Z 31504KT 2000M BR NSC 17/13 Q1011 TEMPO 1500 BR

Airport on the map: